createdAt,value
2018-04-12T00:02:04.977Z,17.01
2018-04-12T00:04:33.274Z,16.86
2018-04-12T00:07:02.316Z,16.91
2018-04-12T00:09:30.591Z,16.92
2018-04-12T00:11:58.869Z,17.04
2018-04-12T00:14:27.161Z,16.98
2018-04-12T00:16:55.444Z,17.02
2018-04-12T00:19:23.713Z,16.92
2018-04-12T00:21:52.010Z,17.10
2018-04-12T00:24:21.045Z,17.03
2018-04-12T00:26:49.322Z,17.04
2018-04-12T00:29:17.589Z,16.96
2018-04-12T00:31:45.885Z,16.90
2018-04-12T00:34:14.159Z,17.01
2018-04-12T00:36:42.435Z,17.08
2018-04-12T00:39:10.727Z,17.03
2018-04-12T00:41:39.358Z,17.00
2018-04-12T00:44:07.649Z,16.97
2018-04-12T00:46:35.914Z,16.80
2018-04-12T00:49:04.233Z,16.81
2018-04-12T00:51:32.495Z,16.81
2018-04-12T00:54:07.427Z,16.70
2018-04-12T00:56:35.688Z,16.75
2018-04-12T00:59:03.971Z,16.75
2018-04-12T01:01:32.246Z,16.64
2018-04-12T01:04:00.614Z,16.62
2018-04-12T01:06:28.911Z,16.58
2018-04-12T01:08:57.199Z,16.48
2018-04-12T01:11:25.633Z,16.55
2018-04-12T01:13:53.976Z,16.48
2018-04-12T01:16:23.030Z,16.50
2018-04-12T01:18:51.290Z,16.52
2018-04-12T01:21:19.580Z,16.61
2018-04-12T01:23:47.882Z,16.65
2018-04-12T01:26:16.159Z,16.73
2018-04-12T01:28:44.784Z,16.70
2018-04-12T01:31:13.052Z,16.74
2018-04-12T01:33:41.315Z,16.75
2018-04-12T01:36:10.344Z,16.86
2018-04-12T01:38:38.630Z,16.87
2018-04-12T01:41:06.904Z,16.87
2018-04-12T01:43:35.177Z,16.87
2018-04-12T01:46:03.442Z,16.80
2018-04-12T01:48:31.729Z,16.80
2018-04-12T01:50:59.989Z,16.82
2018-04-12T01:53:28.253Z,16.78
2018-04-12T01:55:56.516Z,16.74
2018-04-12T01:58:24.816Z,16.76
2018-04-12T02:00:53.093Z,16.80
2018-04-12T02:03:21.369Z,16.74
2018-04-12T02:05:49.637Z,16.68
2018-04-12T02:08:17.918Z,16.64
2018-04-12T02:10:46.221Z,16.65
2018-04-12T02:13:14.473Z,16.55
2018-04-12T02:15:42.989Z,16.53
2018-04-12T02:18:11.262Z,16.46
2018-04-12T02:20:39.554Z,16.62
2018-04-12T02:23:08.592Z,16.56
2018-04-12T02:25:36.871Z,16.45
2018-04-12T02:28:05.141Z,16.43
2018-04-12T02:30:33.433Z,16.28
2018-04-12T02:33:01.702Z,16.12
2018-04-12T02:35:29.983Z,16.07
2018-04-12T02:37:58.275Z,15.75
2018-04-12T02:40:26.583Z,15.39
2018-04-12T02:42:55.649Z,15.44
2018-04-12T02:45:23.907Z,15.35
2018-04-12T02:47:52.365Z,15.18
2018-04-12T02:50:20.762Z,15.03
2018-04-12T02:52:49.429Z,15.03
2018-04-12T02:55:17.709Z,15.05
2018-04-12T02:57:46.007Z,15.04
2018-04-12T03:00:14.333Z,15.09
2018-04-12T03:02:42.650Z,15.09
2018-04-12T03:05:10.940Z,14.97
2018-04-12T03:07:39.220Z,14.92
2018-04-12T03:10:07.521Z,14.80
2018-04-12T03:12:36.547Z,14.67
2018-04-12T03:15:04.844Z,14.64
2018-04-12T03:17:33.115Z,14.55
2018-04-12T03:20:01.518Z,14.46
2018-04-12T03:22:29.803Z,14.39
2018-04-12T03:24:58.978Z,14.28
2018-04-12T03:27:27.255Z,14.15
2018-04-12T03:29:55.552Z,14.13
2018-04-12T03:32:23.808Z,13.94
2018-04-12T03:34:52.367Z,13.76
2018-04-12T03:37:20.760Z,13.56
2018-04-12T03:39:49.045Z,13.35
2018-04-12T03:42:17.352Z,13.53
2018-04-12T03:44:46.382Z,13.22
2018-04-12T03:47:14.665Z,12.94
2018-04-12T03:49:43.015Z,12.92
2018-04-12T03:52:11.244Z,12.93
2018-04-12T03:54:39.526Z,12.84
2018-04-12T03:57:08.571Z,13.11
2018-04-12T03:59:36.854Z,13.12
2018-04-12T04:02:05.137Z,13.11
2018-04-12T04:04:33.407Z,13.09
2018-04-12T04:07:01.676Z,13.18
2018-04-12T04:09:29.959Z,13.17
2018-04-12T04:11:58.538Z,13.05
2018-04-12T04:14:41.972Z,13.02
2018-04-12T04:17:28.170Z,13.02
2018-04-12T04:20:15.397Z,12.98
2018-04-12T04:22:43.938Z,12.90
2018-04-12T04:25:12.553Z,12.79
2018-04-12T04:27:41.223Z,12.75
2018-04-12T04:30:09.748Z,12.74
2018-04-12T04:32:38.272Z,12.80
2018-04-12T04:35:06.994Z,12.78
2018-04-12T04:37:35.377Z,12.82
2018-04-12T04:40:03.932Z,12.93
2018-04-12T04:42:32.411Z,13.03
2018-04-12T04:45:00.726Z,12.95
2018-04-12T04:47:29.070Z,12.89
2018-04-12T04:49:57.593Z,12.89
2018-04-12T04:52:25.929Z,13.04
2018-04-12T04:54:54.278Z,13.12
2018-04-12T04:57:22.674Z,13.14
2018-04-12T04:59:51.090Z,13.30
2018-04-12T05:02:19.374Z,13.21
2018-04-12T05:04:47.746Z,13.34
2018-04-12T05:07:16.182Z,13.42
2018-04-12T05:09:45.166Z,13.31
2018-04-12T05:12:13.449Z,13.41
2018-04-12T05:14:41.720Z,13.18
2018-04-12T05:17:10.004Z,13.47
2018-04-12T05:19:38.318Z,13.35
2018-04-12T05:22:08.221Z,13.25
2018-04-12T05:24:36.879Z,13.17
2018-04-12T05:27:05.178Z,13.30
2018-04-12T05:29:33.442Z,13.14
2018-04-12T05:32:01.708Z,13.23
2018-04-12T05:34:29.991Z,13.17
2018-04-12T05:36:58.278Z,13.15
2018-04-12T05:39:26.564Z,13.14
2018-04-12T05:41:54.914Z,13.07
2018-04-12T05:44:23.285Z,13.07
2018-04-12T05:46:51.617Z,13.18
2018-04-12T05:49:20.658Z,13.21
2018-04-12T05:51:48.930Z,13.10
2018-04-12T05:54:17.224Z,13.06
2018-04-12T05:56:45.557Z,13.18
2018-04-12T05:59:13.859Z,13.09
2018-04-12T06:01:42.180Z,12.88
2018-04-12T06:04:11.419Z,13.06
2018-04-12T06:06:39.702Z,12.92
2018-04-12T06:09:08.220Z,12.86
2018-04-12T06:11:36.518Z,12.74
2018-04-12T06:14:05.597Z,12.97
2018-04-12T06:16:33.865Z,13.08
2018-04-12T06:19:02.140Z,13.30
2018-04-12T06:21:30.432Z,13.38
2018-04-12T06:23:59.574Z,13.55
2018-04-12T06:26:27.853Z,13.62
2018-04-12T06:28:56.162Z,13.74
2018-04-12T06:31:25.208Z,13.91
2018-04-12T06:33:53.491Z,14.09
2018-04-12T06:36:21.769Z,14.02
2018-04-12T06:38:50.056Z,14.05
2018-04-12T06:41:18.326Z,14.28
2018-04-12T06:43:53.162Z,14.54
2018-04-12T06:46:21.531Z,14.78
2018-04-12T06:48:49.800Z,14.79
2018-04-12T06:51:18.095Z,14.78
2018-04-12T06:53:46.375Z,14.87
2018-04-12T06:56:14.689Z,14.94
2018-04-12T06:58:43.856Z,14.90
2018-04-12T07:01:12.593Z,15.02
2018-04-12T07:03:40.878Z,15.23
2018-04-12T07:06:09.121Z,15.33
2018-04-12T07:08:38.173Z,15.52
2018-04-12T07:11:06.438Z,15.58
2018-04-12T07:13:34.718Z,15.72
2018-04-12T07:16:03.118Z,15.86
2018-04-12T07:18:31.410Z,15.95
2018-04-12T07:21:00.442Z,16.05
2018-04-12T07:23:28.725Z,16.17
2018-04-12T07:25:57.866Z,16.18
2018-04-12T07:28:26.145Z,16.40
2018-04-12T07:30:55.213Z,16.50
2018-04-12T07:33:23.495Z,16.62
2018-04-12T07:35:51.761Z,16.79
2018-04-12T07:38:20.033Z,17.02
2018-04-12T07:40:48.307Z,16.97
2018-04-12T07:43:16.620Z,17.05
2018-04-12T07:45:45.692Z,17.21
2018-04-12T07:48:14.029Z,17.33
2018-04-12T07:50:42.314Z,17.36
2018-04-12T07:53:10.614Z,17.49
2018-04-12T07:55:38.906Z,17.54
2018-04-12T07:58:07.928Z,17.61
2018-04-12T08:00:36.234Z,17.75
2018-04-12T08:03:04.540Z,17.91
2018-04-12T08:05:32.857Z,18.06
2018-04-12T08:08:01.182Z,18.20
2018-04-12T08:10:29.437Z,18.18
2018-04-12T08:12:57.806Z,18.30
2018-04-12T08:15:26.126Z,18.37
2018-04-12T08:17:55.367Z,18.48
2018-04-12T08:20:23.695Z,18.61
2018-04-12T08:22:52.763Z,18.81
2018-04-12T08:25:21.118Z,18.77
2018-04-12T08:27:49.414Z,18.91
2018-04-12T08:30:18.287Z,18.98
2018-04-12T08:32:47.506Z,19.00
2018-04-12T08:35:15.974Z,19.00
2018-04-12T08:37:44.253Z,19.27
2018-04-12T08:40:12.552Z,19.47
2018-04-12T08:42:40.829Z,19.61
2018-04-12T08:45:09.166Z,19.83
2018-04-12T08:47:37.439Z,19.83
2018-04-12T08:50:05.737Z,19.62
2018-04-12T08:52:34.030Z,19.56
2018-04-12T08:55:02.334Z,19.63
2018-04-12T08:57:31.383Z,19.71
2018-04-12T08:59:59.657Z,19.81
2018-04-12T09:02:27.918Z,19.71
2018-04-12T09:04:56.213Z,19.52
2018-04-12T09:07:25.281Z,19.31
2018-04-12T09:09:53.590Z,19.43
2018-04-12T09:12:21.951Z,19.53
2018-04-12T09:14:50.239Z,19.78
2018-04-12T09:17:18.511Z,19.78
2018-04-12T09:19:46.783Z,20.03
2018-04-12T09:22:15.111Z,20.41
2018-04-12T09:24:43.391Z,20.22
2018-04-12T09:27:11.662Z,20.28
2018-04-12T09:29:39.946Z,20.13
2018-04-12T09:32:08.251Z,20.15
2018-04-12T09:34:36.511Z,20.16
2018-04-12T09:37:04.769Z,20.14
2018-04-12T09:39:33.134Z,20.14
2018-04-12T09:42:01.632Z,20.07
2018-04-12T09:44:29.903Z,20.03
2018-04-12T09:46:58.177Z,19.81
2018-04-12T09:49:26.597Z,19.78
2018-04-12T09:51:55.656Z,19.91
2018-04-12T09:54:23.922Z,19.77
2018-04-12T09:56:52.235Z,19.61
2018-04-12T09:59:20.545Z,19.64
2018-04-12T10:02:02.149Z,19.73
2018-04-12T10:04:31.174Z,19.90
2018-04-12T10:07:05.591Z,19.88
2018-04-12T10:09:33.972Z,19.66
2018-04-12T10:12:02.249Z,19.52
2018-04-12T10:14:30.515Z,19.50
2018-04-12T10:16:58.768Z,19.57
2018-04-12T10:19:27.193Z,19.69
2018-04-12T10:21:55.447Z,19.60
2018-04-12T10:24:23.722Z,19.60
2018-04-12T10:26:51.995Z,19.52
2018-04-12T10:29:20.278Z,19.61
2018-04-12T10:31:48.636Z,19.70
2018-04-12T10:34:16.971Z,19.78
2018-04-12T10:36:45.297Z,19.82
2018-04-12T10:39:13.595Z,19.75
2018-04-12T10:41:41.871Z,19.88
2018-04-12T10:44:10.308Z,19.86
2018-04-12T10:46:38.591Z,20.74
2018-04-12T10:49:06.885Z,23.22
2018-04-12T10:51:35.169Z,24.07
2018-04-12T10:54:03.432Z,24.90
2018-04-12T10:56:32.010Z,24.49
2018-04-12T10:59:00.267Z,24.10
2018-04-12T11:01:28.570Z,22.86
2018-04-12T11:03:56.848Z,21.37
2018-04-12T11:06:25.141Z,21.53
2018-04-12T11:08:53.456Z,22.13
2018-04-12T11:11:22.510Z,22.12
2018-04-12T11:13:50.783Z,23.41
2018-04-12T11:16:19.038Z,23.33
2018-04-12T11:18:47.382Z,22.91
2018-04-12T11:21:16.431Z,23.79
2018-04-12T11:23:44.742Z,24.48
2018-04-12T11:26:13.047Z,24.30
2018-04-12T11:28:41.378Z,24.38
2018-04-12T11:31:09.630Z,25.21
2018-04-12T11:33:37.921Z,25.82
2018-04-12T11:36:06.202Z,24.74
2018-04-12T11:38:34.530Z,25.01
2018-04-12T11:41:02.795Z,24.59
2018-04-12T11:43:31.078Z,25.54
2018-04-12T11:45:59.372Z,25.74
2018-04-12T11:48:27.635Z,26.71
2018-04-12T11:50:55.909Z,27.44
2018-04-12T11:53:24.224Z,26.27
2018-04-12T11:55:52.559Z,24.98
2018-04-12T11:58:20.805Z,24.88
2018-04-12T12:00:50.804Z,25.41
2018-04-12T12:03:19.253Z,25.16
2018-04-12T12:05:47.605Z,24.24
2018-04-12T12:08:15.884Z,24.62
2018-04-12T12:10:44.155Z,24.34
2018-04-12T12:13:12.467Z,22.56
2018-04-12T12:15:41.546Z,23.00
2018-04-12T12:18:09.860Z,22.46
2018-04-12T12:20:39.232Z,22.04
2018-04-12T12:23:07.553Z,21.77
2018-04-12T12:25:36.602Z,22.20
2018-04-12T12:28:04.939Z,22.63
2018-04-12T12:30:33.233Z,22.37
2018-04-12T12:33:01.493Z,22.54
2018-04-12T12:35:29.791Z,22.21
2018-04-12T12:37:58.092Z,21.93
2018-04-12T12:40:26.410Z,21.92
2018-04-12T12:42:54.712Z,21.84
2018-04-12T12:45:23.002Z,21.83
2018-04-12T12:47:51.335Z,21.63
2018-04-12T12:50:19.610Z,21.21
2018-04-12T12:52:47.874Z,21.33
2018-04-12T12:55:16.943Z,21.47
2018-04-12T12:57:45.228Z,21.55
2018-04-12T13:00:13.472Z,21.12
2018-04-12T13:02:42.126Z,21.05
2018-04-12T13:05:10.443Z,20.82
2018-04-12T13:07:38.737Z,20.90
2018-04-12T13:10:07.068Z,20.97
2018-04-12T13:12:35.334Z,21.11
2018-04-12T13:15:03.608Z,21.00
2018-04-12T13:17:32.026Z,20.99
2018-04-12T13:20:00.454Z,20.96
2018-04-12T13:22:28.867Z,20.85
2018-04-12T13:24:57.208Z,20.81
2018-04-12T13:27:26.166Z,20.84
2018-04-12T13:29:55.195Z,20.69
2018-04-12T13:32:23.475Z,20.58
2018-04-12T13:34:51.774Z,20.88
2018-04-12T13:37:20.105Z,20.66
2018-04-12T13:39:49.160Z,20.68
2018-04-12T13:42:17.446Z,20.56
2018-04-12T13:44:45.904Z,20.55
2018-04-12T13:47:14.199Z,20.40
2018-04-12T13:49:42.460Z,20.43
2018-04-12T13:52:10.742Z,20.47
2018-04-12T13:54:39.035Z,20.50
2018-04-12T13:57:08.094Z,20.27
2018-04-12T13:59:36.436Z,20.09
2018-04-12T14:02:04.708Z,20.33
2018-04-12T14:04:33.061Z,20.63
2018-04-12T14:07:02.211Z,20.76
2018-04-12T14:09:30.504Z,20.86
2018-04-12T14:11:58.825Z,21.29
2018-04-12T14:14:27.864Z,21.18
2018-04-12T14:16:56.126Z,21.45
2018-04-12T14:19:24.412Z,21.30
2018-04-12T14:21:52.708Z,21.16
2018-04-12T14:24:21.811Z,20.98
2018-04-12T14:26:50.409Z,20.71
2018-04-12T14:29:18.699Z,20.77
2018-04-12T14:31:47.038Z,20.52
2018-04-12T14:34:15.390Z,20.47
2018-04-12T14:36:43.667Z,20.46
2018-04-12T14:39:12.116Z,20.45
2018-04-12T14:41:40.396Z,20.88
2018-04-12T14:44:08.686Z,20.48
2018-04-12T14:46:37.165Z,21.05
2018-04-12T14:49:06.274Z,20.96
2018-04-12T14:51:34.542Z,20.64
2018-04-12T14:54:02.867Z,20.76
2018-04-12T14:56:31.926Z,20.82
2018-04-12T14:59:00.196Z,20.60
2018-04-12T15:01:28.481Z,20.67
2018-04-12T15:03:57.545Z,20.77
2018-04-12T15:06:25.848Z,20.76
2018-04-12T15:08:54.463Z,20.83
2018-04-12T15:11:22.777Z,20.90
2018-04-12T15:13:51.059Z,20.92
2018-04-12T15:16:19.432Z,21.53
2018-04-12T15:18:47.721Z,21.88
2018-04-12T15:21:16.007Z,22.20
2018-04-12T15:23:45.166Z,22.84
2018-04-12T15:26:13.455Z,23.72
2018-04-12T15:28:41.746Z,22.89
2018-04-12T15:31:10.022Z,22.81
2018-04-12T15:33:38.294Z,22.83
2018-04-12T15:36:06.706Z,22.62
2018-04-12T15:38:35.009Z,22.97
2018-04-12T15:41:03.309Z,22.71
2018-04-12T15:43:31.580Z,23.18
2018-04-12T15:45:59.890Z,23.63
2018-04-12T15:48:28.160Z,24.07
2018-04-12T15:50:56.757Z,24.33
2018-04-12T15:53:25.051Z,23.58
2018-04-12T15:55:54.111Z,23.46
2018-04-12T15:58:22.413Z,23.56
2018-04-12T16:00:51.457Z,23.48
2018-04-12T16:03:19.721Z,22.95
2018-04-12T16:05:47.995Z,23.05
2018-04-12T16:08:16.255Z,22.71
2018-04-12T16:10:44.540Z,23.95
2018-04-12T16:13:12.822Z,24.80
2018-04-12T16:15:41.094Z,24.99
2018-04-12T16:18:09.375Z,25.23
2018-04-12T16:20:37.668Z,24.73
2018-04-12T16:23:05.950Z,24.08
2018-04-12T16:25:34.274Z,23.32
2018-04-12T16:28:03.375Z,23.34
2018-04-12T16:30:31.801Z,23.18
2018-04-12T16:33:00.545Z,22.77
2018-04-12T16:35:28.962Z,21.99
2018-04-12T16:37:57.596Z,21.76
2018-04-12T16:40:25.871Z,21.46
2018-04-12T16:42:54.468Z,21.04
2018-04-12T16:45:22.819Z,20.89
2018-04-12T16:47:51.066Z,20.57
2018-04-12T16:50:19.372Z,20.45
2018-04-12T16:52:48.418Z,20.67
2018-04-12T16:55:16.801Z,21.20
2018-04-12T16:57:45.109Z,21.65
2018-04-12T17:00:13.446Z,21.72
2018-04-12T17:02:41.752Z,21.57
2018-04-12T17:05:10.801Z,21.49
2018-04-12T17:07:39.100Z,21.66
2018-04-12T17:10:07.372Z,21.74
2018-04-12T17:12:35.731Z,21.68
2018-04-12T17:15:04.236Z,21.59
2018-04-12T17:17:32.525Z,21.30
2018-04-12T17:23:08.615Z,21.01
2018-04-12T17:25:37.731Z,20.82
2018-04-12T17:28:06.795Z,20.70
2018-04-12T17:30:35.093Z,20.47
2018-04-12T17:33:03.384Z,20.36
2018-04-12T17:35:31.706Z,20.14
2018-04-12T17:37:59.991Z,20.12
2018-04-12T17:40:28.765Z,19.98
2018-04-12T17:42:57.233Z,19.89
2018-04-12T17:45:25.527Z,19.85
2018-04-12T17:47:53.850Z,19.69
2018-04-12T17:50:26.000Z,19.65
2018-04-12T17:52:54.521Z,19.54
2018-04-12T17:55:23.611Z,19.45
2018-04-12T17:57:52.065Z,19.34
2018-04-12T18:00:21.148Z,19.27
2018-04-12T18:02:50.215Z,19.23
2018-04-12T18:05:18.653Z,19.12
2018-04-12T18:07:47.271Z,18.97
2018-04-12T18:10:15.633Z,18.95
2018-04-12T18:12:44.070Z,18.87
2018-04-12T18:15:12.486Z,18.70
2018-04-12T18:17:40.990Z,18.59
2018-04-12T18:20:10.187Z,18.43
2018-04-12T18:22:39.042Z,18.43
2018-04-12T18:25:07.562Z,18.35
2018-04-12T18:27:37.343Z,18.33
2018-04-12T18:30:05.793Z,18.23
2018-04-12T18:32:34.383Z,18.15
2018-04-12T18:35:03.071Z,18.01
2018-04-12T18:37:31.557Z,17.91
2018-04-12T18:40:00.219Z,17.89
2018-04-12T18:42:29.341Z,17.81
2018-04-12T18:44:57.941Z,17.76
2018-04-12T18:47:26.504Z,17.60
2018-04-12T18:49:55.083Z,17.54
2018-04-12T18:52:23.767Z,17.50
2018-04-12T18:54:52.153Z,17.40
2018-04-12T18:57:20.553Z,17.31
2018-04-12T18:59:49.318Z,17.23
2018-04-12T19:02:17.796Z,17.09
2018-04-12T19:04:46.150Z,17.01
2018-04-12T19:07:14.769Z,17.08
2018-04-12T19:09:43.557Z,16.96
2018-04-12T19:12:12.533Z,16.99
2018-04-12T19:14:41.227Z,17.04
2018-04-12T19:17:10.078Z,16.98
2018-04-12T19:19:39.107Z,17.00
2018-04-12T19:22:08.580Z,17.02
2018-04-12T19:24:37.056Z,16.94
2018-04-12T19:27:05.775Z,16.96
2018-04-12T19:29:34.181Z,17.01
2018-04-12T19:32:02.540Z,17.01
2018-04-12T19:34:30.882Z,16.88
2018-04-12T19:36:59.197Z,16.84
2018-04-12T19:39:27.499Z,16.80
2018-04-12T19:41:56.666Z,16.73
2018-04-12T19:44:24.928Z,16.53
2018-04-12T19:46:53.220Z,16.50
2018-04-12T19:49:21.574Z,16.31
2018-04-12T19:51:49.905Z,16.29
2018-04-12T19:54:19.045Z,16.20
2018-04-12T19:56:47.340Z,16.01
2018-04-12T19:59:15.609Z,16.01
2018-04-12T20:01:43.916Z,16.00
2018-04-12T20:04:12.201Z,15.94
2018-04-12T20:06:41.259Z,15.83
2018-04-12T20:09:09.539Z,15.73
2018-04-12T20:11:37.839Z,15.53
2018-04-12T20:14:06.900Z,15.61
2018-04-12T20:16:35.729Z,15.67
2018-04-12T20:19:04.786Z,15.46
2018-04-12T20:21:33.063Z,15.38
2018-04-12T20:24:01.361Z,15.38
2018-04-12T20:26:29.659Z,15.30
2018-04-12T20:28:58.720Z,15.24
2018-04-12T20:31:27.009Z,15.25
2018-04-12T20:33:55.288Z,15.15
2018-04-12T20:36:24.703Z,15.00
2018-04-12T20:38:53.892Z,15.04
2018-04-12T20:41:22.287Z,15.23
2018-04-12T20:43:50.595Z,15.12
2018-04-12T20:46:18.981Z,15.28
2018-04-12T20:48:47.279Z,15.19
2018-04-12T20:51:15.612Z,15.17
2018-04-12T20:53:43.909Z,15.16
2018-04-12T20:56:12.190Z,14.87
2018-04-12T20:58:40.508Z,14.93
2018-04-12T21:01:09.558Z,14.88
2018-04-12T21:03:37.814Z,14.82
2018-04-12T21:06:06.137Z,14.91
2018-04-12T21:08:35.195Z,15.04
2018-04-12T21:11:03.568Z,15.02
2018-04-12T21:13:31.894Z,14.94
2018-04-12T21:16:00.956Z,14.99
2018-04-12T21:18:29.248Z,14.91
2018-04-12T21:20:57.506Z,14.57
2018-04-12T21:23:25.879Z,14.46
2018-04-12T21:25:54.146Z,14.58
2018-04-12T21:28:22.439Z,14.49
2018-04-12T21:30:50.727Z,14.48
2018-04-12T21:33:19.065Z,14.37
2018-04-12T21:35:47.324Z,14.44
2018-04-12T21:38:15.614Z,14.46
2018-04-12T21:40:43.886Z,14.37
2018-04-12T21:43:12.365Z,14.47
2018-04-12T21:45:40.658Z,14.38
2018-04-12T21:48:08.942Z,14.25
2018-04-12T21:50:37.250Z,14.29
2018-04-12T21:53:06.279Z,14.03
2018-04-12T21:55:34.590Z,14.11
2018-04-12T21:58:02.866Z,14.10
2018-04-12T22:00:31.540Z,14.12
2018-04-12T22:02:59.814Z,14.09
2018-04-12T22:05:28.088Z,14.08
2018-04-12T22:07:56.395Z,13.91
2018-04-12T22:10:25.457Z,13.88
2018-04-12T22:12:53.710Z,14.01
2018-04-12T22:15:22.127Z,13.94
2018-04-12T22:17:51.187Z,13.92
2018-04-12T22:20:19.468Z,13.85
2018-04-12T22:22:47.771Z,13.71
2018-04-12T22:25:16.048Z,13.56
2018-04-12T22:27:44.325Z,13.68
2018-04-12T22:30:12.575Z,13.71
2018-04-12T22:32:40.959Z,13.76
2018-04-12T22:35:09.924Z,13.53
2018-04-12T22:37:38.932Z,13.54
2018-04-12T22:40:07.331Z,13.36
2018-04-12T22:42:35.594Z,13.12
2018-04-12T22:45:03.912Z,13.18
2018-04-12T22:47:32.961Z,13.17
2018-04-12T22:50:01.253Z,13.20
2018-04-12T22:52:29.505Z,13.14
2018-04-12T22:54:57.880Z,13.15
2018-04-12T22:57:26.160Z,13.19
2018-04-12T22:59:54.467Z,13.20
2018-04-12T23:02:22.707Z,13.32
2018-04-12T23:04:51.002Z,13.29
2018-04-12T23:07:19.271Z,13.22
2018-04-12T23:09:47.540Z,13.28
2018-04-12T23:12:15.817Z,13.05
2018-04-12T23:14:44.069Z,12.99
2018-04-12T23:17:12.525Z,13.15
2018-04-12T23:19:40.790Z,12.94
2018-04-12T23:22:09.830Z,12.91
2018-04-12T23:24:38.330Z,12.92
2018-04-12T23:27:06.605Z,12.93
2018-04-12T23:29:34.866Z,12.80
2018-04-12T23:34:38.924Z,12.54
2018-04-12T23:37:07.967Z,12.59
2018-04-12T23:39:36.234Z,12.59
2018-04-12T23:42:04.509Z,12.65
2018-04-12T23:44:32.871Z,12.50
2018-04-12T23:47:01.909Z,12.45
2018-04-12T23:49:30.190Z,12.65
2018-04-12T23:51:58.467Z,12.55
2018-04-12T23:54:26.730Z,12.66
2018-04-12T23:56:54.993Z,12.57
2018-04-12T23:59:23.293Z,12.72
